Flight Track Log - Related Links

Times and Time Zones

All times are in EDT time to prevent confusion due to time zone crossing. See the N83CH flight status page for this flight to view local times or setup timezone preferences in your user account.

Time Position Orientation Groundspeed Altitude Reporting Facility
EDT Latitude Longitude Course Direction KTS MPH feet Rate Location/Type
Fri 01:51:55 PM 33.5572 -86.7758 291° West 132 152 1,400  Level Atlanta Center
Fri 01:52:32 PM 33.5669 -86.8061 291° West 153 176 2,200 1,379 Climbing Atlanta Center
Fri 01:53:22 PM 33.6086 -86.8075 358° North 167 192 3,400 1,397 Climbing Atlanta Center
Fri 01:53:45 PM 33.6233 -86.8081 358° North 175 201 3,900 1,100 Climbing Atlanta Center
Fri 01:54:22 PM 33.6569 -86.7964 16° North 185 213 4,500 1,237 Climbing Atlanta Center
Fri 01:55:22 PM 33.7094 -86.7808 14° North 203 234 5,900 1,350 Climbing Atlanta Center
Fri 01:56:22 PM 33.7636 -86.7850 356° North 197 227 7,200 1,250 Climbing Atlanta Center
Fri 01:57:22 PM 33.8178 -86.7967 350° North 197 227 8,400 1,208 Climbing Atlanta Center
Fri 01:58:56 PM 33.9011 -86.8186 348° North 218 251 10,300 974 Climbing Memphis Center
Fri 01:59:56 PM 33.9597 -86.8311 350° North 218 251 10,900 350 Climbing Memphis Center
Fri 02:00:56 PM 34.0292 -86.8458 350° North 231 266 11,000 50 Climbing Memphis Center
Fri 02:01:56 PM 34.1106 -86.8475 359° North 255 293 11,000  Level Memphis Center
Fri 02:02:56 PM 34.1739 -86.8775 339° North 250 288 11,000  Level Memphis Center
Fri 02:03:56 PM 34.2411 -86.8925 350° North 245 282 11,000  Level Memphis Center
Fri 02:04:56 PM 34.3061 -86.9022 353° North 240 276 11,000  Level Memphis Center
Fri 02:05:56 PM 34.3733 -86.9172 350° North 240 276 11,000  Level Memphis Center
Fri 02:06:56 PM 34.4406 -86.9297 351° North 240 276 11,000  Level Memphis Center
Fri 02:07:56 PM 34.5056 -86.9472 347° North 240 276 11,000  Level Memphis Center
Fri 02:08:56 PM 34.5706 -86.9622 349° North 240 276 11,000  Level Memphis Center
Fri 02:09:56 PM 34.6358 -86.9747 351° North 240 276 11,000  Level Memphis Center
Fri 02:10:56 PM 34.7008 -86.9900 349° North 240 276 11,000  Level Memphis Center
Fri 02:11:56 PM 34.7658 -87.0050 349° North 240 276 11,000  Level Memphis Center
Fri 02:12:56 PM 34.8308 -87.0200 349° North 240 276 11,000  Level Memphis Center
Fri 02:13:56 PM 34.8939 -87.0353 349° North 240 276 11,000  Level Memphis Center
Fri 02:14:56 PM 34.9589 -87.0481 351° North 240 276 11,000  Level Memphis Center
Fri 02:15:56 PM 35.0242 -87.0631 349° North 240 276 11,000  Level Memphis Center
Fri 02:16:56 PM 35.0911 -87.0758 351° North 240 276 11,000  Level Memphis Center
Fri 02:17:56 PM 35.1542 -87.0936 347° North 240 276 11,000 -150 Level Memphis Center
Fri 02:18:56 PM 35.2192 -87.1064 351° North 240 276 10,700 -1,050 Descending Memphis Center
Fri 02:19:56 PM 35.2864 -87.1242 348° North 240 276 8,900 -2,250 Descending Memphis Center
Fri 02:20:56 PM 35.3575 -87.1339 354° North 245 282 6,200 -2,700 Descending Memphis Center

Login

Don't have an account? Register now (free) for customized features, flight alerts, and more!